createdAt,value
2018-12-29T00:01:30.457Z,52.20
2018-12-29T00:03:58.657Z,50.63
2018-12-29T00:06:26.973Z,52.37
2018-12-29T00:08:55.213Z,52.73
2018-12-29T00:11:23.421Z,50.83
2018-12-29T00:13:51.738Z,51.93
2018-12-29T00:16:20.051Z,50.83
2018-12-29T00:18:48.313Z,52.60
2018-12-29T00:21:16.491Z,51.47
2018-12-29T00:23:44.864Z,51.53
2018-12-29T00:26:13.240Z,49.27
2018-12-29T00:28:41.361Z,48.57
2018-12-29T00:31:09.869Z,49.63
2018-12-29T00:33:38.053Z,50.07
2018-12-29T00:36:07.313Z,49.30
2018-12-29T00:38:35.897Z,50.73
2018-12-29T00:41:04.077Z,49.77
2018-12-29T00:43:32.372Z,51.07
2018-12-29T00:46:00.485Z,50.13
2018-12-29T00:48:28.759Z,49.63
2018-12-29T00:50:56.883Z,49.40
2018-12-29T00:53:25.136Z,50.43
2018-12-29T00:55:53.348Z,48.43
2018-12-29T00:58:21.716Z,50.60
2018-12-29T01:00:49.986Z,49.47
2018-12-29T01:03:18.101Z,48.50
2018-12-29T01:05:46.342Z,48.40
2018-12-29T01:08:14.612Z,48.80
2018-12-29T01:10:42.937Z,48.73
2018-12-29T01:13:11.227Z,47.33
2018-12-29T01:15:39.466Z,45.83
2018-12-29T01:18:07.668Z,47.00
2018-12-29T01:20:36.012Z,47.17
2018-12-29T01:23:04.341Z,47.63
2018-12-29T01:25:32.633Z,46.90
2018-12-29T01:28:00.952Z,48.80
2018-12-29T01:30:29.227Z,48.00
2018-12-29T01:32:57.340Z,47.40
2018-12-29T01:35:25.590Z,48.43
2018-12-29T01:37:55.807Z,48.10
2018-12-29T01:40:24.157Z,49.10
2018-12-29T01:42:52.453Z,49.27
2018-12-29T01:45:22.001Z,48.07
2018-12-29T01:47:50.691Z,47.93
2018-12-29T01:50:19.903Z,48.17
2018-12-29T01:52:50.269Z,47.43
2018-12-29T01:55:18.686Z,49.27
2018-12-29T01:57:47.069Z,47.70
2018-12-29T02:00:15.708Z,48.23
2018-12-29T02:02:43.917Z,48.83
2018-12-29T02:05:13.100Z,46.83
2018-12-29T02:07:41.406Z,47.93
2018-12-29T02:10:09.581Z,47.83
2018-12-29T02:12:37.817Z,47.17
2018-12-29T02:15:06.029Z,46.73
2018-12-29T02:17:34.264Z,48.10
2018-12-29T02:20:02.565Z,45.83
2018-12-29T02:22:30.733Z,47.17
2018-12-29T02:24:58.972Z,47.17
2018-12-29T02:27:27.144Z,45.07
2018-12-29T02:29:55.329Z,48.33
2018-12-29T02:32:23.513Z,48.47
2018-12-29T02:34:51.749Z,48.20
2018-12-29T02:37:19.865Z,47.50
2018-12-29T02:39:49.260Z,46.50
2018-12-29T02:42:17.442Z,47.20
2018-12-29T02:44:45.624Z,44.47
2018-12-29T02:47:13.791Z,43.30
2018-12-29T02:49:41.960Z,42.27
2018-12-29T02:52:10.140Z,42.00
2018-12-29T02:54:38.325Z,41.57
2018-12-29T02:57:06.499Z,42.00
2018-12-29T02:59:34.832Z,44.03
2018-12-29T03:02:03.281Z,46.73
2018-12-29T03:04:32.133Z,46.63
2018-12-29T03:07:00.429Z,45.77
2018-12-29T03:09:28.772Z,43.30
2018-12-29T03:11:57.070Z,42.70
2018-12-29T03:14:25.523Z,38.93
2018-12-29T03:16:53.868Z,45.15
2018-12-29T03:19:22.187Z,41.90
2018-12-29T03:21:50.481Z,40.33
2018-12-29T03:24:18.714Z,41.00
2018-12-29T03:26:46.833Z,41.23
2018-12-29T03:29:15.085Z,40.10
2018-12-29T03:31:43.198Z,42.70
2018-12-29T03:34:11.368Z,42.57
2018-12-29T03:36:39.569Z,42.93
2018-12-29T03:39:07.682Z,43.83
2018-12-29T03:41:35.892Z,43.60
2018-12-29T03:44:04.492Z,45.30
2018-12-29T03:46:32.609Z,47.90
2018-12-29T03:49:00.797Z,45.67
2018-12-29T03:51:29.022Z,47.87
2018-12-29T03:53:57.182Z,45.23
2018-12-29T03:56:25.300Z,45.67
2018-12-29T03:58:53.496Z,45.70
2018-12-29T04:01:21.672Z,44.53
2018-12-29T04:03:49.848Z,45.87
2018-12-29T04:06:18.030Z,46.03
2018-12-29T04:09:04.452Z,43.67
2018-12-29T04:11:32.716Z,42.83
2018-12-29T04:14:00.842Z,39.70
2018-12-29T04:16:29.105Z,40.93
2018-12-29T04:18:57.301Z,38.90
2018-12-29T04:21:25.575Z,39.30
2018-12-29T04:23:53.680Z,39.30
2018-12-29T04:26:21.950Z,40.17
2018-12-29T04:28:50.061Z,42.43
2018-12-29T04:31:18.298Z,38.20
2018-12-29T04:33:46.774Z,38.50
2018-12-29T04:36:15.107Z,38.90
2018-12-29T04:38:43.295Z,39.03
2018-12-29T04:41:11.568Z,44.38
2018-12-29T04:43:39.677Z,39.77
2018-12-29T04:46:07.921Z,42.37
2018-12-29T04:48:36.117Z,40.43
2018-12-29T04:51:04.292Z,44.17
2018-12-29T04:53:32.472Z,47.13
2018-12-29T04:56:00.712Z,43.63
2018-12-29T04:58:28.826Z,43.87
2018-12-29T05:00:57.092Z,41.93
2018-12-29T05:03:25.272Z,44.50
2018-12-29T05:05:53.443Z,48.70
2018-12-29T05:08:21.648Z,47.67
2018-12-29T05:10:49.765Z,45.53
2018-12-29T05:13:18.081Z,44.03
2018-12-29T05:15:46.196Z,44.90
2018-12-29T05:18:14.472Z,44.30
2018-12-29T05:20:42.594Z,44.47
2018-12-29T05:23:10.905Z,45.40
2018-12-29T05:25:39.012Z,42.33
2018-12-29T05:28:07.286Z,43.33
2018-12-29T05:30:35.402Z,42.57
2018-12-29T05:33:03.649Z,42.40
2018-12-29T05:35:31.865Z,41.70
2018-12-29T05:38:00.314Z,41.83
2018-12-29T05:40:29.308Z,41.47
2018-12-29T05:42:57.569Z,44.70
2018-12-29T05:45:25.741Z,41.47
2018-12-29T05:47:53.912Z,39.37
2018-12-29T05:50:22.275Z,41.30
2018-12-29T05:52:50.476Z,41.23
2018-12-29T05:55:19.103Z,41.57
2018-12-29T05:57:47.321Z,42.73
2018-12-29T06:00:15.581Z,38.23
2018-12-29T06:02:44.657Z,40.10
2018-12-29T06:05:12.916Z,41.47
2018-12-29T06:07:41.033Z,39.80
2018-12-29T06:10:09.271Z,41.47
2018-12-29T06:12:37.450Z,41.47
2018-12-29T06:15:05.633Z,41.60
2018-12-29T06:17:33.839Z,41.77
2018-12-29T06:20:02.010Z,42.67
2018-12-29T06:22:30.210Z,40.27
2018-12-29T06:24:58.386Z,42.27
2018-12-29T06:27:26.569Z,42.37
2018-12-29T06:29:54.932Z,41.83
2018-12-29T06:32:23.047Z,43.63
2018-12-29T06:34:51.302Z,45.07
2018-12-29T06:37:19.497Z,45.00
2018-12-29T06:39:47.796Z,46.63
2018-12-29T06:42:16.116Z,47.57
2018-12-29T06:44:45.549Z,51.80
2018-12-29T06:47:13.861Z,48.47
2018-12-29T06:49:42.117Z,48.07
2018-12-29T06:52:10.260Z,48.80
2018-12-29T06:54:38.540Z,47.20
2018-12-29T06:57:06.758Z,46.73
2018-12-29T06:59:34.950Z,46.97
2018-12-29T07:02:03.283Z,45.67
2018-12-29T07:04:31.493Z,44.00
2018-12-29T07:06:59.804Z,46.83
2018-12-29T07:09:28.600Z,46.03
2018-12-29T07:11:56.887Z,46.67
2018-12-29T07:14:25.000Z,46.33
2018-12-29T07:16:53.237Z,46.57
2018-12-29T07:19:22.084Z,46.73
2018-12-29T07:21:50.420Z,47.07
2018-12-29T07:24:18.680Z,44.43
2018-12-29T07:26:46.906Z,43.80
2018-12-29T07:29:15.076Z,43.23
2018-12-29T07:31:43.312Z,41.00
2018-12-29T07:34:11.425Z,41.37
2018-12-29T07:36:39.760Z,39.30
2018-12-29T07:39:07.932Z,43.57
2018-12-29T07:41:36.217Z,40.43
2018-12-29T07:44:04.344Z,41.37
2018-12-29T07:46:32.624Z,43.30
2018-12-29T07:49:00.732Z,48.80
2018-12-29T07:51:28.972Z,43.53
2018-12-29T07:53:57.918Z,42.00
2018-12-29T07:56:26.217Z,39.83
2018-12-29T07:58:54.421Z,41.80
2018-12-29T08:01:22.608Z,40.33
2018-12-29T08:03:50.870Z,38.77
2018-12-29T08:06:19.048Z,38.60
2018-12-29T08:08:47.229Z,39.60
2018-12-29T08:11:15.510Z,40.10
2018-12-29T08:13:54.541Z,40.50
2018-12-29T08:16:28.415Z,40.40
2018-12-29T08:18:56.889Z,40.60
2018-12-29T08:21:25.010Z,39.27
2018-12-29T08:23:53.293Z,40.47
2018-12-29T08:26:21.822Z,36.93
2018-12-29T08:28:50.204Z,39.63
2018-12-29T08:31:18.565Z,36.33
2018-12-29T08:33:46.678Z,38.13
2018-12-29T08:36:14.781Z,40.10
2018-12-29T08:38:43.018Z,37.77
2018-12-29T08:41:11.229Z,36.37
2018-12-29T08:43:39.336Z,37.67
2018-12-29T08:46:07.593Z,41.73
2018-12-29T08:48:35.721Z,36.20
2018-12-29T08:51:03.963Z,34.07
2018-12-29T08:53:32.133Z,38.13
2018-12-29T08:56:00.433Z,38.97
2018-12-29T08:58:28.683Z,43.40
2018-12-29T09:00:56.810Z,43.33
2018-12-29T09:03:25.436Z,43.27
2018-12-29T09:05:53.629Z,44.83
2018-12-29T09:08:21.931Z,43.47
2018-12-29T09:10:50.797Z,39.67
2018-12-29T09:13:19.186Z,38.53
2018-12-29T09:15:47.486Z,37.87
2018-12-29T09:18:15.841Z,34.93
2018-12-29T09:20:44.134Z,35.53
2018-12-29T09:23:12.422Z,33.40
2018-12-29T09:25:41.219Z,36.67
2018-12-29T09:28:09.429Z,34.53
2018-12-29T09:30:37.785Z,29.83
2018-12-29T09:33:05.904Z,29.97
2018-12-29T09:35:34.550Z,24.90
2018-12-29T09:38:02.994Z,29.63
2018-12-29T09:40:31.587Z,27.63
2018-12-29T09:43:00.037Z,30.57
2018-12-29T09:45:28.481Z,32.43
2018-12-29T09:47:57.978Z,33.13
2018-12-29T09:50:26.604Z,30.43
2018-12-29T09:52:54.982Z,31.07
2018-12-29T09:55:23.681Z,30.30
2018-12-29T09:57:52.185Z,32.93
2018-12-29T10:00:21.273Z,33.47
2018-12-29T10:02:50.611Z,37.20
2018-12-29T10:05:19.617Z,35.40
2018-12-29T10:07:48.720Z,36.57
2018-12-29T10:10:17.625Z,33.97
2018-12-29T10:12:46.082Z,33.50
2018-12-29T10:15:14.465Z,34.50
2018-12-29T10:17:43.800Z,35.97
2018-12-29T10:20:13.449Z,33.03
2018-12-29T10:22:42.152Z,29.53
2018-12-29T10:25:10.650Z,30.30
2018-12-29T10:27:39.055Z,30.80
2018-12-29T10:30:07.714Z,29.53
2018-12-29T10:32:36.314Z,27.17
2018-12-29T10:35:05.043Z,30.57
2018-12-29T10:37:33.521Z,32.33
2018-12-29T10:40:02.484Z,32.83
2018-12-29T10:42:31.396Z,31.90
2018-12-29T10:44:59.876Z,31.30
2018-12-29T10:47:34.440Z,37.50
2018-12-29T10:50:00.082Z,36.40
2018-12-29T10:52:28.689Z,32.03
2018-12-29T10:54:57.357Z,31.13
2018-12-29T10:57:25.728Z,35.47
2018-12-29T10:59:54.152Z,29.13
2018-12-29T11:02:22.525Z,27.63
2018-12-29T11:04:51.130Z,27.80
2018-12-29T11:07:19.653Z,25.17
2018-12-29T11:09:47.988Z,26.53
2018-12-29T11:12:16.525Z,30.30
2018-12-29T11:14:44.914Z,34.20
2018-12-29T11:17:13.500Z,30.13
2018-12-29T11:19:42.021Z,30.80
2018-12-29T11:22:11.113Z,32.90
2018-12-29T11:24:39.667Z,33.03
2018-12-29T11:27:11.872Z,31.33
2018-12-29T11:29:40.250Z,33.23
2018-12-29T11:32:08.638Z,32.70
2018-12-29T11:34:37.015Z,29.87
2018-12-29T11:37:05.730Z,30.13
2018-12-29T11:39:34.248Z,30.37
2018-12-29T11:42:02.565Z,28.80
2018-12-29T11:44:31.046Z,28.40
2018-12-29T11:46:59.381Z,33.00
2018-12-29T11:49:29.209Z,37.37
2018-12-29T11:51:57.654Z,37.23
2018-12-29T11:54:26.102Z,28.97
2018-12-29T11:56:54.607Z,28.17
2018-12-29T11:59:23.287Z,26.67
2018-12-29T12:01:52.726Z,29.53
2018-12-29T12:04:22.013Z,30.57
2018-12-29T12:06:50.617Z,26.30
2018-12-29T12:09:19.086Z,25.40
2018-12-29T12:11:47.578Z,25.17
2018-12-29T12:14:16.081Z,28.50
2018-12-29T12:16:44.405Z,29.73
2018-12-29T12:19:12.839Z,28.80
2018-12-29T12:21:42.823Z,27.87
2018-12-29T12:24:11.362Z,28.10
2018-12-29T12:26:39.918Z,30.57
2018-12-29T12:29:08.456Z,29.23
2018-12-29T12:31:38.899Z,30.67
2018-12-29T12:34:07.347Z,31.83
2018-12-29T12:36:36.246Z,30.73
2018-12-29T12:39:06.766Z,30.07
2018-12-29T12:41:35.613Z,30.07
2018-12-29T12:44:04.480Z,28.77
2018-12-29T12:46:33.109Z,25.20
2018-12-29T12:49:01.886Z,28.83
2018-12-29T12:51:30.395Z,28.20
2018-12-29T12:53:58.985Z,26.37
2018-12-29T12:56:29.531Z,26.20
2018-12-29T12:58:58.005Z,26.33
2018-12-29T13:01:27.639Z,30.40
2018-12-29T13:03:56.206Z,31.20
2018-12-29T13:06:24.815Z,34.30
2018-12-29T13:08:53.456Z,34.33
2018-12-29T13:11:21.907Z,34.23
2018-12-29T13:13:50.255Z,36.37
2018-12-29T13:16:18.919Z,35.50
2018-12-29T13:18:47.317Z,35.83
2018-12-29T13:21:15.928Z,36.70
2018-12-29T13:23:44.470Z,36.93
2018-12-29T13:26:13.161Z,40.13
2018-12-29T13:28:41.508Z,40.37
2018-12-29T13:31:10.016Z,37.73
2018-12-29T13:33:38.445Z,41.43
2018-12-29T13:36:06.945Z,35.63
2018-12-29T13:38:35.523Z,34.90
2018-12-29T13:41:03.881Z,33.03
2018-12-29T13:43:32.368Z,85.70
2018-12-29T13:46:01.823Z,35.77
2018-12-29T13:48:30.354Z,31.77
2018-12-29T13:50:58.799Z,38.60
2018-12-29T13:53:27.237Z,29.87
2018-12-29T13:55:55.690Z,46.70
2018-12-29T13:58:24.069Z,33.80
2018-12-29T14:00:52.449Z,28.93
2018-12-29T14:03:20.845Z,27.70
2018-12-29T14:05:49.213Z,29.43
2018-12-29T14:08:17.662Z,25.90
2018-12-29T14:10:46.078Z,26.60
2018-12-29T14:13:14.625Z,26.07
2018-12-29T14:15:43.153Z,23.83
2018-12-29T14:18:11.581Z,31.37
2018-12-29T14:20:40.150Z,28.13
2018-12-29T14:23:09.753Z,27.53
2018-12-29T14:25:38.764Z,29.93
2018-12-29T14:28:07.410Z,32.40
2018-12-29T14:30:35.806Z,26.30
2018-12-29T14:33:04.366Z,27.53
2018-12-29T14:35:32.809Z,29.17
2018-12-29T14:38:01.557Z,28.47
2018-12-29T14:40:30.085Z,31.03
2018-12-29T14:43:00.096Z,35.33
2018-12-29T14:45:28.537Z,26.37
2018-12-29T14:47:57.061Z,27.87
2018-12-29T14:50:26.156Z,29.03
2018-12-29T14:52:55.376Z,32.40
2018-12-29T14:55:23.963Z,31.43
2018-12-29T14:57:52.735Z,34.57
2018-12-29T15:00:21.509Z,33.87
2018-12-29T15:02:49.902Z,42.03
2018-12-29T15:05:18.440Z,34.80
2018-12-29T15:07:46.851Z,37.10
2018-12-29T15:10:15.778Z,35.17
2018-12-29T15:12:44.142Z,37.90
2018-12-29T15:15:13.162Z,39.33
2018-12-29T15:17:41.576Z,45.13
2018-12-29T15:20:10.695Z,46.67
2018-12-29T15:22:39.176Z,38.20
2018-12-29T15:25:07.652Z,40.03
2018-12-29T15:27:36.611Z,40.07
2018-12-29T15:30:05.597Z,40.40
2018-12-29T15:32:34.221Z,40.00
2018-12-29T15:35:03.250Z,40.93
2018-12-29T15:37:31.756Z,47.67
2018-12-29T15:40:00.346Z,44.97
2018-12-29T15:42:29.498Z,48.13
2018-12-29T15:44:58.152Z,43.40
2018-12-29T15:47:27.132Z,43.60
2018-12-29T15:49:56.105Z,44.50
2018-12-29T15:52:24.648Z,43.40
2018-12-29T15:54:53.088Z,44.87
2018-12-29T15:57:21.617Z,49.42
2018-12-29T15:59:50.579Z,42.83
2018-12-29T16:02:19.117Z,47.80
2018-12-29T16:04:48.101Z,49.53
2018-12-29T16:07:16.413Z,48.37
2018-12-29T16:09:44.961Z,48.80
2018-12-29T16:12:13.749Z,51.67
2018-12-29T16:14:42.249Z,57.33
2018-12-29T16:17:10.804Z,61.30
2018-12-29T16:19:39.497Z,65.67
2018-12-29T16:22:08.556Z,66.50
2018-12-29T16:24:37.138Z,69.07
2018-12-29T16:27:06.440Z,71.17
2018-12-29T16:29:34.981Z,67.77
2018-12-29T16:32:03.827Z,70.63
2018-12-29T16:34:32.353Z,65.00
2018-12-29T16:37:00.769Z,69.23
2018-12-29T16:39:29.361Z,71.63
2018-12-29T16:41:57.864Z,68.50
2018-12-29T16:44:26.365Z,66.53
2018-12-29T16:46:54.694Z,71.82
2018-12-29T16:49:23.205Z,68.00
2018-12-29T16:51:51.598Z,70.03
2018-12-29T16:54:20.669Z,66.73
2018-12-29T16:56:50.170Z,66.30
2018-12-29T16:59:18.537Z,67.57
2018-12-29T17:01:47.489Z,70.20
2018-12-29T17:04:15.829Z,71.03
2018-12-29T17:06:44.233Z,70.00
2018-12-29T17:09:12.634Z,68.37
2018-12-29T17:11:41.009Z,66.30
2018-12-29T17:14:09.330Z,72.23
2018-12-29T17:16:38.058Z,68.23
2018-12-29T17:19:06.365Z,64.97
2018-12-29T17:21:34.717Z,64.73
2018-12-29T17:24:03.499Z,66.57
2018-12-29T17:26:31.815Z,63.33
2018-12-29T17:29:00.217Z,66.10
2018-12-29T17:31:29.151Z,63.17
2018-12-29T17:33:57.723Z,63.53
2018-12-29T17:36:26.169Z,75.92
2018-12-29T17:38:54.488Z,66.43
2018-12-29T17:41:22.956Z,63.83
2018-12-29T17:43:51.661Z,60.80
2018-12-29T17:46:20.379Z,61.17
2018-12-29T17:48:48.833Z,61.57
2018-12-29T17:51:17.334Z,59.20
2018-12-29T17:53:48.220Z,62.70
2018-12-29T17:56:16.013Z,62.47
2018-12-29T17:58:44.427Z,62.90
2018-12-29T18:01:12.843Z,61.83
2018-12-29T18:03:41.142Z,62.30
2018-12-29T18:06:10.880Z,61.43
2018-12-29T18:08:39.427Z,59.27
2018-12-29T18:11:08.279Z,77.13
2018-12-29T18:13:36.601Z,62.57
2018-12-29T18:16:05.065Z,64.67
2018-12-29T18:18:33.396Z,62.13
2018-12-29T18:21:01.920Z,63.93
2018-12-29T18:23:31.101Z,65.53
2018-12-29T18:25:59.729Z,65.50
2018-12-29T18:28:29.343Z,63.00
2018-12-29T18:30:58.025Z,64.83
2018-12-29T18:33:26.529Z,62.10
2018-12-29T18:35:55.568Z,63.13
2018-12-29T18:38:23.877Z,60.90
2018-12-29T18:40:52.349Z,57.33
2018-12-29T18:43:20.664Z,61.43
2018-12-29T18:45:49.161Z,59.80
2018-12-29T18:48:18.314Z,59.37
2018-12-29T18:50:47.045Z,59.53
2018-12-29T18:53:15.474Z,59.40
2018-12-29T18:55:43.958Z,58.63
2018-12-29T18:58:12.474Z,58.50
2018-12-29T19:00:40.932Z,56.53
2018-12-29T19:03:09.241Z,54.43
2018-12-29T19:05:37.678Z,56.80
2018-12-29T19:08:06.090Z,55.50
2018-12-29T19:10:34.694Z,67.22
2018-12-29T19:13:03.588Z,63.90
2018-12-29T19:15:32.497Z,63.00
2018-12-29T19:18:01.596Z,64.33
2018-12-29T19:20:30.429Z,55.23
2018-12-29T19:22:58.965Z,48.20
2018-12-29T19:25:27.282Z,43.77
2018-12-29T19:27:56.969Z,48.43
2018-12-29T19:30:26.091Z,47.33
2018-12-29T19:32:55.045Z,49.63
2018-12-29T19:35:23.441Z,51.67
2018-12-29T19:37:51.817Z,54.90
2018-12-29T19:40:20.431Z,54.47
2018-12-29T19:42:49.253Z,52.40
2018-12-29T19:45:17.705Z,49.50
2018-12-29T19:47:46.613Z,47.80
2018-12-29T19:50:15.402Z,44.80
2018-12-29T19:52:43.806Z,46.63
2018-12-29T19:55:13.297Z,48.17
2018-12-29T19:57:41.754Z,47.00
2018-12-29T20:00:10.869Z,45.27
2018-12-29T20:02:40.302Z,50.07
2018-12-29T20:05:09.271Z,54.03
2018-12-29T20:07:38.993Z,47.23
2018-12-29T20:10:07.889Z,48.20
2018-12-29T20:12:36.312Z,45.83
2018-12-29T20:15:05.233Z,47.73
2018-12-29T20:17:35.073Z,44.40
2018-12-29T20:20:05.349Z,38.47
2018-12-29T20:22:33.858Z,42.43
2018-12-29T20:25:02.257Z,46.77
2018-12-29T20:27:30.733Z,48.63
2018-12-29T20:29:59.500Z,50.07
2018-12-29T20:32:29.166Z,55.92
2018-12-29T20:35:00.597Z,51.43
2018-12-29T20:37:30.191Z,51.87
2018-12-29T20:39:58.521Z,50.83
2018-12-29T20:42:27.407Z,50.87
2018-12-29T20:44:55.816Z,53.73
2018-12-29T20:47:24.213Z,56.40
2018-12-29T20:49:52.652Z,55.70
2018-12-29T20:52:21.050Z,55.60
2018-12-29T20:54:49.519Z,57.07
2018-12-29T20:57:17.914Z,57.27
2018-12-29T20:59:46.489Z,62.90
2018-12-29T21:02:14.990Z,61.37
2018-12-29T21:04:43.293Z,61.33
2018-12-29T21:07:11.761Z,58.93
2018-12-29T21:09:41.246Z,55.20
2018-12-29T21:12:11.333Z,59.20
2018-12-29T21:14:39.697Z,55.70
2018-12-29T21:17:08.181Z,57.27
2018-12-29T21:19:36.559Z,57.03
2018-12-29T21:22:05.356Z,53.40
2018-12-29T21:24:33.796Z,53.23
2018-12-29T21:27:02.266Z,53.97
2018-12-29T21:29:45.056Z,55.80
2018-12-29T21:32:14.682Z,52.57
2018-12-29T21:34:45.485Z,57.75
2018-12-29T21:37:16.433Z,52.70
2018-12-29T21:39:44.761Z,52.90
2018-12-29T21:42:13.216Z,55.30
2018-12-29T21:44:41.728Z,51.97
2018-12-29T21:47:10.293Z,50.53
2018-12-29T21:49:38.605Z,47.23
2018-12-29T21:52:06.921Z,45.87
2018-12-29T21:54:35.300Z,45.60
2018-12-29T21:57:03.920Z,43.43
2018-12-29T21:59:32.743Z,43.73
2018-12-29T22:02:01.674Z,45.57
2018-12-29T22:04:31.203Z,46.93
2018-12-29T22:06:59.734Z,45.07
2018-12-29T22:09:28.049Z,44.57
2018-12-29T22:11:56.677Z,43.03
2018-12-29T22:14:25.098Z,44.00
2018-12-29T22:16:54.418Z,45.57
2018-12-29T22:19:22.789Z,44.20
2018-12-29T22:21:51.534Z,45.07
2018-12-29T22:24:19.869Z,41.13
2018-12-29T22:26:48.262Z,43.13
2018-12-29T22:29:17.065Z,41.33
2018-12-29T22:31:46.738Z,39.37
2018-12-29T22:34:15.169Z,38.50
2018-12-29T22:36:48.601Z,41.70
2018-12-29T22:39:17.121Z,36.73
2018-12-29T22:41:46.277Z,37.27
2018-12-29T22:44:16.562Z,35.57
2018-12-29T22:46:44.950Z,38.03
2018-12-29T22:49:13.406Z,37.53
2018-12-29T22:51:42.172Z,35.67
2018-12-29T22:54:11.406Z,37.10
2018-12-29T22:56:39.893Z,37.40
2018-12-29T22:59:08.374Z,33.47
2018-12-29T23:01:36.797Z,34.60
2018-12-29T23:04:05.375Z,32.13
2018-12-29T23:06:33.798Z,30.60
2018-12-29T23:09:06.287Z,28.97
2018-12-29T23:11:35.105Z,34.30
2018-12-29T23:14:03.625Z,33.97
2018-12-29T23:16:32.120Z,33.80
2018-12-29T23:19:01.286Z,32.27
2018-12-29T23:21:29.797Z,35.30
2018-12-29T23:24:00.028Z,27.80
2018-12-29T23:26:28.409Z,33.13
2018-12-29T23:28:56.823Z,31.57
2018-12-29T23:31:32.977Z,28.20
2018-12-29T23:34:01.349Z,32.20
2018-12-29T23:36:29.718Z,30.80
2018-12-29T23:38:58.256Z,29.87
2018-12-29T23:41:26.565Z,31.70
2018-12-29T23:43:55.014Z,33.00
2018-12-29T23:46:23.393Z,30.57
2018-12-29T23:48:51.897Z,31.57
2018-12-29T23:51:20.330Z,31.60
2018-12-29T23:53:48.652Z,30.77
2018-12-29T23:56:17.437Z,30.83
2018-12-29T23:58:45.773Z,29.40
